Kezdőlap
METAR-TAF:

METAR-TAF

Repülőterek :

Avenger Field

Sweetwater, Texas, Amerikai Egyesült Államok

földrajzi szélesség: 32-28-02N, földrajzi hosszúság: 100-27-59W, magasság: 725 m

Jelenlegi meteorológiai megfigyelések

A jelentés 39 perccel ezelõtt készült, 15:55 UTC
Dél-délkeleti szél 23 kt széllökések: 29 kt
Hőmérséklet 28°C
Páratartalom 62%
Légköri nyomás 1010 hPa
Látótávolság: 16.1 km

METAR: KSWW 181555Z AUTO 15023G29KT 10SM 28/20 A2982 RMK AO2 T02830195

Idő: 11:34 (16:34 UTC)


TAF: hiányzik

Meteorológiai megfigyelések és előrejelzések több, mint 4000 repülőtéren (METAR és TAF jelentéseket).

A térképen piros és sárga pontok jelzik az elérhető meteorológiai állomásokat.

Mozgassa az egeret a pont fölött, hogy megjelenjen az állomás neve.

Azután kattintson az időjárási megfigyelések és előrejelzések megtekintéséhez.

A térkép megváltoztatása: kattintson a fekete keresztel jelölt zöld gombra ráközelítéshez, a vonallal jelölt zöld gombra távolításhoz, vagy a zöld nyilakra a szomszédos térképek eléréséhez.


METAR-TAF: